createdAt,value
2019-05-17T00:00:09.808Z,89.17
2019-05-17T00:01:09.806Z,89.26
2019-05-17T00:02:09.781Z,88.98
2019-05-17T00:03:09.783Z,89.36
2019-05-17T00:04:09.804Z,89.26
2019-05-17T00:05:09.793Z,89.17
2019-05-17T00:06:09.857Z,88.59
2019-05-17T00:07:09.815Z,88.88
2019-05-17T00:08:09.813Z,88.98
2019-05-17T00:09:09.812Z,89.07
2019-05-17T00:10:09.833Z,89.07
2019-05-17T00:11:09.841Z,88.88
2019-05-17T00:12:09.906Z,89.17
2019-05-17T00:13:14.441Z,88.78
2019-05-17T00:14:09.850Z,88.78
2019-05-17T00:15:09.864Z,88.78
2019-05-17T00:16:09.867Z,88.88
2019-05-17T00:17:09.890Z,89.36
2019-05-17T00:18:09.889Z,89.26
2019-05-17T00:19:09.881Z,89.26
2019-05-17T00:20:09.905Z,88.98
2019-05-17T00:21:09.896Z,89.36
2019-05-17T00:22:09.973Z,89.07
2019-05-17T00:23:09.906Z,89.17
2019-05-17T00:24:10.118Z,89.26
2019-05-17T00:25:09.931Z,89.17
2019-05-17T00:26:10.061Z,89.17
2019-05-17T00:27:09.959Z,89.17
2019-05-17T00:28:10.102Z,88.98
2019-05-17T00:29:10.026Z,89.26
2019-05-17T00:30:09.943Z,89.36
2019-05-17T00:31:09.967Z,89.17
2019-05-17T00:32:09.944Z,89.36
2019-05-17T00:33:09.985Z,89.54
2019-05-17T00:34:09.961Z,89.74
2019-05-17T00:35:09.956Z,89.26
2019-05-17T00:36:09.983Z,89.26
2019-05-17T00:37:09.980Z,89.17
2019-05-17T00:38:09.971Z,89.31
2019-05-17T00:39:10.022Z,89.26
2019-05-17T00:40:10.055Z,89.50
2019-05-17T00:41:10.008Z,89.12
2019-05-17T00:42:10.015Z,89.21
2019-05-17T00:43:10.056Z,89.02
2019-05-17T00:44:10.034Z,89.21
2019-05-17T00:45:10.042Z,89.40
2019-05-17T00:46:10.029Z,89.02
2019-05-17T00:47:10.028Z,88.83
2019-05-17T00:48:10.050Z,88.73
2019-05-17T00:49:10.041Z,88.35
2019-05-17T00:50:10.178Z,88.73
2019-05-17T00:51:10.929Z,88.73
2019-05-17T00:52:10.120Z,88.92
2019-05-17T00:53:10.081Z,88.35
2019-05-17T00:54:10.093Z,88.73
2019-05-17T00:55:10.069Z,88.83
2019-05-17T00:56:10.131Z,88.73
2019-05-17T00:57:10.111Z,88.26
2019-05-17T00:58:10.117Z,88.73
2019-05-17T00:59:10.174Z,88.26
2019-05-17T01:00:10.115Z,88.16
2019-05-17T01:01:10.155Z,88.16
2019-05-17T01:02:10.136Z,88.16
2019-05-17T01:03:10.154Z,87.59
2019-05-17T01:04:10.152Z,87.78
2019-05-17T01:05:10.145Z,87.59
2019-05-17T01:06:10.145Z,87.87
2019-05-17T01:07:10.169Z,87.78
2019-05-17T01:08:10.223Z,87.68
2019-05-17T01:09:10.193Z,87.78
2019-05-17T01:10:10.175Z,87.87
2019-05-17T01:11:10.170Z,87.59
2019-05-17T01:12:10.250Z,87.87
2019-05-17T01:13:10.349Z,87.59
2019-05-17T01:14:10.307Z,87.11
2019-05-17T01:15:10.205Z,87.30
2019-05-17T01:16:10.235Z,87.11
2019-05-17T01:17:10.209Z,87.11
2019-05-17T01:18:10.221Z,87.11
2019-05-17T01:19:10.223Z,87.21
2019-05-17T01:20:10.259Z,86.92
2019-05-17T01:21:10.225Z,87.11
2019-05-17T01:22:10.243Z,87.02
2019-05-17T01:23:10.281Z,86.54
2019-05-17T01:24:10.284Z,87.02
2019-05-17T01:25:10.258Z,86.82
2019-05-17T01:26:10.297Z,87.11
2019-05-17T01:27:10.277Z,86.82
2019-05-17T01:28:10.297Z,86.54
2019-05-17T01:29:10.321Z,86.35
2019-05-17T01:30:10.341Z,86.63
2019-05-17T01:31:10.293Z,86.44
2019-05-17T01:32:10.300Z,87.02
2019-05-17T01:33:10.305Z,86.73
2019-05-17T01:34:10.326Z,86.63
2019-05-17T01:35:10.381Z,86.16
2019-05-17T01:36:10.367Z,86.49
2019-05-17T01:37:10.804Z,86.44
2019-05-17T01:38:10.328Z,86.54
2019-05-17T01:39:17.198Z,85.97
2019-05-17T01:40:10.547Z,86.16
2019-05-17T01:41:10.341Z,86.06
2019-05-17T01:42:10.370Z,86.16
2019-05-17T01:43:10.419Z,85.72
2019-05-17T01:44:10.375Z,85.82
2019-05-17T01:45:10.427Z,86.10
2019-05-17T01:46:10.399Z,86.10
2019-05-17T01:47:10.400Z,85.87
2019-05-17T01:48:10.414Z,85.58
2019-05-17T01:49:10.484Z,85.34
2019-05-17T01:50:10.415Z,85.53
2019-05-17T01:51:10.448Z,85.44
2019-05-17T01:52:10.420Z,85.53
2019-05-17T01:53:10.436Z,84.63
2019-05-17T01:54:10.433Z,85.25
2019-05-17T01:55:10.436Z,84.92
2019-05-17T01:56:10.456Z,84.58
2019-05-17T01:57:10.505Z,84.63
2019-05-17T01:58:10.461Z,84.48
2019-05-17T01:59:10.460Z,84.39
2019-05-17T02:00:10.478Z,84.44
2019-05-17T02:01:10.470Z,84.25
2019-05-17T02:02:10.495Z,84.44
2019-05-17T02:03:10.502Z,84.34
2019-05-17T02:04:10.485Z,84.44
2019-05-17T02:05:10.536Z,84.25
2019-05-17T02:06:10.551Z,84.25
2019-05-17T02:07:10.571Z,84.63
2019-05-17T02:08:10.512Z,84.53
2019-05-17T02:09:10.603Z,84.53
2019-05-17T02:10:10.510Z,84.44
2019-05-17T02:11:10.539Z,84.25
2019-05-17T02:12:10.620Z,84.25
2019-05-17T02:13:10.569Z,84.25
2019-05-17T02:14:10.618Z,84.53
2019-05-17T02:15:10.546Z,84.63
2019-05-17T02:16:10.576Z,84.25
2019-05-17T02:17:10.575Z,84.53
2019-05-17T02:18:10.587Z,84.34
2019-05-17T02:19:10.591Z,84.25
2019-05-17T02:20:10.581Z,84.34
2019-05-17T02:21:10.579Z,83.96
2019-05-17T02:22:10.583Z,83.58
2019-05-17T02:23:10.620Z,83.87
2019-05-17T02:24:10.652Z,84.44
2019-05-17T02:25:10.659Z,84.44
2019-05-17T02:26:10.632Z,84.34
2019-05-17T02:27:10.675Z,84.34
2019-05-17T02:28:12.208Z,84.25
2019-05-17T02:29:12.055Z,84.44
2019-05-17T02:30:14.064Z,84.25
2019-05-17T02:31:13.263Z,84.34
2019-05-17T02:32:12.805Z,83.67
2019-05-17T02:33:12.596Z,84.44
2019-05-17T02:34:13.886Z,84.16
2019-05-17T02:35:14.115Z,84.72
2019-05-17T02:36:13.911Z,84.92
2019-05-17T02:37:13.452Z,84.34
2019-05-17T02:38:13.307Z,84.34
2019-05-17T02:39:13.206Z,84.25
2019-05-17T02:40:13.953Z,84.25
2019-05-17T02:41:13.791Z,84.34
2019-05-17T02:42:13.711Z,84.25
2019-05-17T02:43:13.327Z,84.34
2019-05-17T02:44:13.092Z,84.44
2019-05-17T02:45:13.319Z,84.25
2019-05-17T02:46:13.496Z,84.06
2019-05-17T02:47:13.330Z,83.87
2019-05-17T02:48:13.139Z,84.53
2019-05-17T02:49:13.788Z,83.77
2019-05-17T02:50:12.822Z,83.96
2019-05-17T02:51:13.153Z,83.77
2019-05-17T02:52:12.426Z,83.77
2019-05-17T02:53:13.219Z,83.96
2019-05-17T02:54:13.284Z,84.53
2019-05-17T02:55:12.819Z,84.72
2019-05-17T02:56:13.521Z,84.44
2019-05-17T02:57:13.851Z,84.63
2019-05-17T02:58:12.821Z,84.44
2019-05-17T02:59:13.434Z,84.53
2019-05-17T03:00:13.397Z,84.25
2019-05-17T03:01:12.702Z,84.34
2019-05-17T03:02:12.733Z,84.44
2019-05-17T03:03:13.473Z,84.34
2019-05-17T03:04:12.985Z,84.34
2019-05-17T03:05:12.940Z,84.63
2019-05-17T03:06:13.624Z,84.53
2019-05-17T03:07:13.547Z,84.44
2019-05-17T03:08:12.275Z,84.34
2019-05-17T03:09:12.485Z,84.53
2019-05-17T03:10:22.163Z,84.25
2019-05-17T03:11:13.480Z,84.34
2019-05-17T03:12:12.888Z,84.63
2019-05-17T03:13:12.820Z,84.34
2019-05-17T03:14:12.861Z,84.34
2019-05-17T03:15:13.034Z,84.44
2019-05-17T03:16:14.295Z,84.63
2019-05-17T03:17:13.805Z,84.82
2019-05-17T03:18:13.416Z,84.34
2019-05-17T03:19:13.057Z,84.82
2019-05-17T03:20:12.867Z,84.44
2019-05-17T03:21:13.546Z,84.44
2019-05-17T03:22:13.147Z,84.72
2019-05-17T03:23:12.668Z,84.59
2019-05-17T03:24:13.652Z,84.59
2019-05-17T03:25:13.713Z,84.59
2019-05-17T03:26:13.037Z,84.97
2019-05-17T03:27:13.875Z,84.88
2019-05-17T03:28:13.424Z,84.69
2019-05-17T03:29:13.628Z,84.59
2019-05-17T03:30:16.757Z,84.69
2019-05-17T03:31:16.965Z,85.06
2019-05-17T03:32:16.776Z,84.88
2019-05-17T03:33:16.206Z,85.06
2019-05-17T03:34:16.982Z,84.78
2019-05-17T03:35:16.614Z,84.88
2019-05-17T03:36:16.050Z,85.21
2019-05-17T03:37:15.943Z,84.82
2019-05-17T03:38:13.871Z,84.82
2019-05-17T03:39:12.982Z,84.82
2019-05-17T03:40:24.857Z,85.21
2019-05-17T03:41:22.253Z,84.82
2019-05-17T03:42:13.208Z,84.16
2019-05-17T03:43:13.822Z,84.53
2019-05-17T03:44:13.673Z,84.44
2019-05-17T03:45:13.713Z,84.63
2019-05-17T03:46:13.922Z,84.44
2019-05-17T03:47:13.137Z,84.44
2019-05-17T03:48:12.912Z,84.63
2019-05-17T03:49:13.113Z,84.63
2019-05-17T03:50:13.463Z,84.44
2019-05-17T03:51:13.179Z,84.63
2019-05-17T03:52:13.554Z,84.25
2019-05-17T03:53:13.214Z,84.16
2019-05-17T03:54:13.779Z,84.72
2019-05-17T03:55:13.134Z,84.44
2019-05-17T03:56:13.326Z,84.34
2019-05-17T03:57:13.399Z,84.44
2019-05-17T03:58:12.688Z,84.06
2019-05-17T03:59:12.853Z,84.34
2019-05-17T04:00:13.303Z,84.34
2019-05-17T04:01:14.138Z,84.72
2019-05-17T04:02:12.402Z,84.63
2019-05-17T04:03:13.569Z,84.53
2019-05-17T04:04:13.378Z,84.34
2019-05-17T04:05:12.629Z,84.25
2019-05-17T04:06:13.305Z,84.34
2019-05-17T04:07:12.735Z,84.34
2019-05-17T04:08:13.997Z,84.34
2019-05-17T04:09:13.887Z,84.16
2019-05-17T04:10:14.624Z,84.34
2019-05-17T04:11:25.291Z,84.34
2019-05-17T04:12:13.654Z,84.53
2019-05-17T04:13:12.885Z,84.25
2019-05-17T04:14:14.008Z,84.44
2019-05-17T04:15:13.332Z,84.44
2019-05-17T04:16:13.944Z,84.44
2019-05-17T04:17:13.086Z,84.16
2019-05-17T04:18:13.006Z,84.53
2019-05-17T04:19:13.939Z,84.34
2019-05-17T04:20:13.583Z,84.44
2019-05-17T04:21:12.593Z,84.44
2019-05-17T04:22:13.901Z,84.48
2019-05-17T04:23:12.698Z,84.00
2019-05-17T04:24:12.774Z,83.72
2019-05-17T04:25:13.378Z,83.81
2019-05-17T04:26:13.599Z,83.91
2019-05-17T04:27:13.598Z,83.62
2019-05-17T04:28:13.581Z,83.91
2019-05-17T04:29:13.527Z,83.91
2019-05-17T04:30:12.523Z,83.91
2019-05-17T04:31:13.347Z,83.91
2019-05-17T04:32:13.017Z,83.72
2019-05-17T04:33:12.880Z,83.91
2019-05-17T04:34:13.464Z,83.67
2019-05-17T04:35:12.962Z,83.38
2019-05-17T04:36:13.086Z,83.18
2019-05-17T04:37:13.033Z,83.18
2019-05-17T04:38:12.797Z,83.18
2019-05-17T04:39:13.372Z,82.32
2019-05-17T04:40:14.272Z,82.81
2019-05-17T04:41:13.318Z,82.81
2019-05-17T04:42:13.592Z,82.81
2019-05-17T04:43:13.631Z,82.61
2019-05-17T04:44:12.858Z,82.18
2019-05-17T04:45:12.659Z,81.95
2019-05-17T04:46:13.015Z,81.95
2019-05-17T04:47:13.354Z,81.89
2019-05-17T04:48:13.175Z,81.89
2019-05-17T04:49:13.771Z,81.99
2019-05-17T04:50:13.569Z,81.32
2019-05-17T04:51:13.150Z,82.08
2019-05-17T04:52:13.777Z,81.79
2019-05-17T04:53:13.257Z,81.22
2019-05-17T04:54:13.736Z,81.32
2019-05-17T04:55:13.324Z,81.60
2019-05-17T04:56:14.116Z,81.41
2019-05-17T04:57:13.148Z,81.22
2019-05-17T04:58:13.745Z,81.07
2019-05-17T04:59:13.855Z,80.50
2019-05-17T05:00:12.875Z,80.59
2019-05-17T05:01:13.293Z,80.98
2019-05-17T05:02:13.188Z,80.59
2019-05-17T05:03:12.732Z,80.59
2019-05-17T05:04:15.073Z,79.44
2019-05-17T05:05:13.469Z,80.11
2019-05-17T05:06:13.349Z,79.49
2019-05-17T05:07:13.711Z,79.58
2019-05-17T05:08:12.989Z,79.87
2019-05-17T05:09:12.769Z,78.63
2019-05-17T05:10:13.534Z,79.39
2019-05-17T05:11:12.681Z,78.72
2019-05-17T05:12:12.462Z,79.20
2019-05-17T05:13:13.279Z,79.43
2019-05-17T05:14:12.829Z,78.57
2019-05-17T05:15:12.182Z,77.61
2019-05-17T05:16:13.574Z,77.80
2019-05-17T05:17:12.803Z,78.09
2019-05-17T05:18:13.289Z,77.99
2019-05-17T05:19:12.980Z,78.03
2019-05-17T05:20:13.268Z,78.03
2019-05-17T05:21:12.219Z,78.03
2019-05-17T05:22:13.521Z,77.55
2019-05-17T05:23:12.930Z,76.15
2019-05-17T05:24:11.730Z,77.02
2019-05-17T05:25:12.412Z,74.43
2019-05-17T05:26:12.164Z,74.66
2019-05-17T05:27:11.757Z,74.62
2019-05-17T05:28:11.762Z,73.90
2019-05-17T05:29:12.762Z,74.27
2019-05-17T05:30:12.227Z,73.80
2019-05-17T05:31:13.283Z,73.45
2019-05-17T05:32:11.945Z,73.65
2019-05-17T05:33:13.001Z,72.88
2019-05-17T05:34:12.333Z,73.16
2019-05-17T05:35:12.550Z,72.97
2019-05-17T05:36:11.813Z,72.11
2019-05-17T05:37:12.555Z,72.43
2019-05-17T05:38:13.011Z,72.14
2019-05-17T05:39:11.848Z,70.90
2019-05-17T05:40:12.703Z,69.20
2019-05-17T05:41:12.307Z,69.97
2019-05-17T05:42:13.997Z,68.37
2019-05-17T05:43:12.121Z,68.18
2019-05-17T05:44:12.346Z,67.64
2019-05-17T05:45:12.217Z,66.77
2019-05-17T05:46:11.913Z,64.40
2019-05-17T05:47:11.965Z,65.17
2019-05-17T05:48:12.770Z,63.67
2019-05-17T05:49:12.493Z,63.51
2019-05-17T05:50:12.691Z,63.44
2019-05-17T05:51:13.732Z,61.22
2019-05-17T05:52:12.546Z,60.10
2019-05-17T05:53:12.901Z,62.03
2019-05-17T05:54:12.414Z,60.80
2019-05-17T05:55:12.455Z,58.91
2019-05-17T05:56:13.289Z,59.03
2019-05-17T05:57:12.589Z,57.39
2019-05-17T05:58:12.279Z,57.62
2019-05-17T05:59:12.344Z,57.06
2019-05-17T06:00:12.718Z,56.13
2019-05-17T06:01:12.812Z,54.51
2019-05-17T06:02:12.342Z,54.15
2019-05-17T06:03:12.394Z,54.53
2019-05-17T06:04:12.102Z,51.95
2019-05-17T06:05:14.992Z,51.28
2019-05-17T06:06:12.460Z,51.20
2019-05-17T06:07:12.856Z,50.35
2019-05-17T06:08:12.478Z,49.39
2019-05-17T06:09:12.241Z,49.51
2019-05-17T06:10:12.903Z,49.22
2019-05-17T06:11:12.427Z,49.82
2019-05-17T06:12:22.973Z,48.00
2019-05-17T06:13:13.018Z,47.16
2019-05-17T06:14:12.373Z,45.78
2019-05-17T06:15:12.674Z,46.67
2019-05-17T06:16:12.250Z,45.31
2019-05-17T06:17:12.679Z,45.51
2019-05-17T06:18:12.612Z,43.66
2019-05-17T06:19:12.315Z,45.34
2019-05-17T06:20:12.343Z,43.59
2019-05-17T06:21:12.364Z,43.20
2019-05-17T06:22:12.315Z,43.80
2019-05-17T06:23:12.645Z,43.63
2019-05-17T06:24:12.364Z,43.82
2019-05-17T06:25:14.753Z,41.39
2019-05-17T06:26:12.607Z,41.39
2019-05-17T06:27:12.507Z,41.22
2019-05-17T06:28:12.475Z,41.32
2019-05-17T06:29:12.463Z,41.24
2019-05-17T06:30:12.825Z,40.08
2019-05-17T06:31:15.034Z,40.08
2019-05-17T06:32:12.480Z,40.68
2019-05-17T06:33:26.753Z,39.29
2019-05-17T06:34:12.538Z,40.48
2019-05-17T06:35:12.929Z,39.90
2019-05-17T06:36:13.670Z,38.93
2019-05-17T06:37:13.388Z,38.93
2019-05-17T06:38:12.589Z,40.19
2019-05-17T06:39:12.597Z,39.31
2019-05-17T06:40:13.286Z,39.39
2019-05-17T06:41:12.778Z,39.39
2019-05-17T06:42:12.625Z,38.98
2019-05-17T06:43:13.330Z,38.96
2019-05-17T06:44:12.674Z,39.62
2019-05-17T06:45:12.807Z,39.70
2019-05-17T06:46:12.698Z,40.08
2019-05-17T06:47:12.703Z,41.02
2019-05-17T06:48:12.775Z,41.49
2019-05-17T06:49:12.741Z,41.27
2019-05-17T06:50:14.271Z,41.56
2019-05-17T06:51:12.755Z,42.32
2019-05-17T06:52:12.769Z,42.00
2019-05-17T06:53:12.836Z,43.37
2019-05-17T06:54:12.857Z,43.65
2019-05-17T06:55:13.186Z,43.73
2019-05-17T06:56:12.955Z,44.07
2019-05-17T06:57:12.976Z,45.91
2019-05-17T06:58:12.911Z,45.79
2019-05-17T06:59:12.897Z,47.24
2019-05-17T07:00:19.721Z,47.60
2019-05-17T07:01:12.939Z,47.00
2019-05-17T07:02:12.921Z,46.20
2019-05-17T07:03:12.944Z,46.95
2019-05-17T07:04:13.004Z,48.79
2019-05-17T07:05:13.020Z,48.57
2019-05-17T07:06:13.061Z,49.05
2019-05-17T07:07:13.029Z,49.24
2019-05-17T07:08:13.036Z,49.51
2019-05-17T07:09:13.046Z,49.36
2019-05-17T07:10:13.040Z,50.81
2019-05-17T07:11:13.039Z,51.67
2019-05-17T07:12:13.106Z,52.63
2019-05-17T07:13:13.070Z,53.09
2019-05-17T07:14:13.150Z,54.14
2019-05-17T07:15:13.117Z,54.14
2019-05-17T07:16:13.119Z,54.05
2019-05-17T07:17:13.144Z,54.24
2019-05-17T07:18:13.133Z,54.50
2019-05-17T07:19:13.185Z,54.99
2019-05-17T07:20:13.161Z,55.76
2019-05-17T07:21:13.199Z,56.14
2019-05-17T07:22:13.193Z,56.04
2019-05-17T07:23:13.240Z,55.56
2019-05-17T07:24:13.186Z,56.30
2019-05-17T07:25:13.259Z,55.91
2019-05-17T07:26:13.222Z,56.01
2019-05-17T07:27:13.249Z,56.49
2019-05-17T07:28:13.310Z,55.53
2019-05-17T07:29:13.306Z,55.63
2019-05-17T07:30:13.305Z,56.30
2019-05-17T07:31:13.283Z,56.01
2019-05-17T07:32:13.289Z,55.69
2019-05-17T07:33:13.349Z,56.85
2019-05-17T07:34:13.308Z,57.04
2019-05-17T07:35:13.296Z,57.33
2019-05-17T07:36:13.332Z,57.90
2019-05-17T07:37:13.342Z,57.81
2019-05-17T07:38:13.349Z,58.67
2019-05-17T07:39:13.361Z,58.67
2019-05-17T07:40:13.494Z,58.48
2019-05-17T07:41:13.372Z,59.61
2019-05-17T07:42:13.370Z,59.61
2019-05-17T07:43:14.869Z,59.41
2019-05-17T07:44:13.528Z,58.26
2019-05-17T07:45:13.436Z,59.70
2019-05-17T07:46:13.443Z,60.05
2019-05-17T07:47:13.451Z,59.86
2019-05-17T07:48:13.469Z,60.25
2019-05-17T07:49:13.457Z,61.02
2019-05-17T07:50:13.599Z,61.78
2019-05-17T07:51:13.467Z,60.53
2019-05-17T07:52:13.496Z,60.92
2019-05-17T07:53:13.487Z,60.72
2019-05-17T07:54:13.500Z,61.37
2019-05-17T07:55:13.524Z,62.04
2019-05-17T07:56:13.560Z,62.33
2019-05-17T07:57:13.538Z,62.16
2019-05-17T07:58:13.529Z,61.75
2019-05-17T07:59:13.530Z,61.85
2019-05-17T08:00:13.578Z,62.81
2019-05-17T08:01:13.610Z,62.90
2019-05-17T08:02:13.601Z,63.38
2019-05-17T08:03:13.721Z,63.67
2019-05-17T08:04:13.610Z,63.19
2019-05-17T08:05:13.621Z,63.67
2019-05-17T08:06:13.636Z,63.57
2019-05-17T08:07:13.678Z,63.38
2019-05-17T08:08:13.632Z,63.57
2019-05-17T08:09:14.234Z,63.19
2019-05-17T08:10:13.674Z,63.67
2019-05-17T08:11:13.724Z,63.67
2019-05-17T08:12:13.724Z,64.25
2019-05-17T08:13:25.812Z,64.72
2019-05-17T08:14:26.630Z,64.53
2019-05-17T08:15:13.843Z,64.05
2019-05-17T08:16:13.693Z,63.96
2019-05-17T08:17:13.806Z,64.05
2019-05-17T08:18:13.811Z,64.92
2019-05-17T08:19:13.774Z,64.34
2019-05-17T08:20:13.855Z,64.25
2019-05-17T08:21:13.862Z,64.69
2019-05-17T08:22:13.779Z,65.94
2019-05-17T08:23:13.799Z,65.08
2019-05-17T08:24:13.778Z,64.59
2019-05-17T08:25:13.810Z,64.98
2019-05-17T08:26:13.823Z,64.98
2019-05-17T08:27:13.831Z,64.59
2019-05-17T08:28:14.024Z,63.80
2019-05-17T08:29:13.830Z,63.70
2019-05-17T08:30:13.818Z,64.85
2019-05-17T08:31:13.906Z,64.66
2019-05-17T08:32:13.879Z,65.05
2019-05-17T08:33:13.889Z,65.05
2019-05-17T08:34:13.868Z,65.62
2019-05-17T08:35:13.895Z,66.67
2019-05-17T08:36:13.886Z,66.48
2019-05-17T08:37:13.886Z,66.09
2019-05-17T08:38:13.914Z,66.29
2019-05-17T08:39:13.910Z,66.58
2019-05-17T08:40:15.348Z,66.29
2019-05-17T08:41:13.978Z,65.71
2019-05-17T08:42:13.974Z,66.19
2019-05-17T08:43:13.936Z,65.23
2019-05-17T08:44:13.953Z,64.95
2019-05-17T08:45:13.997Z,64.76
2019-05-17T08:46:13.994Z,65.05
2019-05-17T08:47:14.016Z,65.23
2019-05-17T08:48:13.969Z,65.42
2019-05-17T08:49:13.978Z,66.19
2019-05-17T08:50:14.129Z,66.48
2019-05-17T08:51:13.994Z,65.91
2019-05-17T08:52:13.998Z,66.00
2019-05-17T08:53:14.031Z,65.71
2019-05-17T08:54:14.057Z,66.00
2019-05-17T08:55:14.043Z,66.00
2019-05-17T08:56:14.051Z,65.81
2019-05-17T08:57:14.129Z,65.84
2019-05-17T08:58:14.062Z,66.22
2019-05-17T08:59:14.084Z,65.75
2019-05-17T09:00:14.146Z,65.23
2019-05-17T09:01:14.101Z,64.79
2019-05-17T09:02:14.077Z,65.65
2019-05-17T09:03:14.130Z,65.75
2019-05-17T09:04:14.117Z,64.89
2019-05-17T09:05:14.132Z,64.89
2019-05-17T09:06:14.151Z,64.18
2019-05-17T09:07:14.148Z,64.31
2019-05-17T09:08:14.137Z,64.98
2019-05-17T09:09:14.157Z,65.08
2019-05-17T09:10:14.179Z,64.22
2019-05-17T09:11:14.177Z,64.89
2019-05-17T09:12:14.180Z,64.31
2019-05-17T09:13:14.766Z,64.22
2019-05-17T09:14:14.190Z,64.31
2019-05-17T09:15:14.310Z,63.92
2019-05-17T09:16:14.224Z,64.89
2019-05-17T09:17:14.215Z,65.08
2019-05-17T09:18:14.231Z,65.01
2019-05-17T09:19:14.222Z,64.82
2019-05-17T09:20:14.244Z,65.11
2019-05-17T09:21:14.290Z,65.39
2019-05-17T09:22:14.255Z,65.11
2019-05-17T09:23:14.267Z,65.20
2019-05-17T09:24:14.275Z,65.20
2019-05-17T09:25:18.887Z,65.20
2019-05-17T09:26:14.331Z,65.30
2019-05-17T09:27:14.297Z,63.32
2019-05-17T09:28:14.297Z,63.38
2019-05-17T09:29:14.374Z,62.65
2019-05-17T09:30:14.336Z,63.03
2019-05-17T09:31:14.400Z,63.42
2019-05-17T09:32:14.341Z,63.70
2019-05-17T09:33:14.453Z,63.89
2019-05-17T09:34:14.350Z,64.22
2019-05-17T09:35:14.423Z,64.31
2019-05-17T09:36:14.386Z,64.31
2019-05-17T09:37:16.990Z,64.12
2019-05-17T09:38:14.419Z,63.73
2019-05-17T09:39:14.406Z,62.48
2019-05-17T09:40:14.409Z,62.42
2019-05-17T09:41:14.467Z,62.19
2019-05-17T09:42:14.435Z,61.33
2019-05-17T09:43:15.010Z,61.46
2019-05-17T09:44:16.384Z,60.40
2019-05-17T09:45:14.586Z,60.31
2019-05-17T09:46:14.603Z,61.55
2019-05-17T09:47:14.519Z,61.84
2019-05-17T09:48:14.489Z,61.75
2019-05-17T09:49:14.505Z,61.08
2019-05-17T09:50:14.550Z,60.98
2019-05-17T09:51:14.580Z,61.87
2019-05-17T09:52:14.597Z,61.68
2019-05-17T09:53:14.571Z,61.78
2019-05-17T09:54:14.563Z,61.30
2019-05-17T09:55:14.616Z,61.68
2019-05-17T09:56:14.598Z,61.58
2019-05-17T09:57:14.633Z,62.26
2019-05-17T09:58:14.602Z,60.82
2019-05-17T09:59:14.608Z,59.95
2019-05-17T10:00:14.610Z,57.45
2019-05-17T10:01:14.640Z,58.61
2019-05-17T10:02:14.746Z,59.38
2019-05-17T10:03:14.643Z,59.86
2019-05-17T10:04:14.766Z,60.05
2019-05-17T10:05:14.692Z,60.24
2019-05-17T10:06:14.702Z,60.63
2019-05-17T10:07:14.682Z,60.63
2019-05-17T10:08:14.698Z,59.86
2019-05-17T10:09:14.751Z,58.89
2019-05-17T10:10:14.709Z,58.70
2019-05-17T10:11:14.730Z,58.51
2019-05-17T10:12:14.746Z,58.61
2019-05-17T10:13:14.787Z,57.75
2019-05-17T10:14:27.421Z,58.03
2019-05-17T10:15:14.793Z,57.45
2019-05-17T10:16:14.795Z,58.35
2019-05-17T10:17:14.799Z,58.83
2019-05-17T10:18:14.839Z,58.64
2019-05-17T10:19:14.815Z,58.64
2019-05-17T10:20:14.829Z,58.92
2019-05-17T10:21:14.851Z,58.64
2019-05-17T10:22:14.884Z,57.68
2019-05-17T10:23:14.852Z,56.62
2019-05-17T10:24:14.857Z,57.29
2019-05-17T10:25:14.924Z,57.99
2019-05-17T10:26:14.877Z,56.55
2019-05-17T10:27:14.904Z,56.84
2019-05-17T10:28:14.898Z,55.98
2019-05-17T10:29:14.927Z,56.74
2019-05-17T10:30:14.986Z,56.93
2019-05-17T10:31:15.064Z,57.03
2019-05-17T10:32:14.937Z,57.13
2019-05-17T10:33:14.933Z,57.13
2019-05-17T10:34:14.967Z,57.60
2019-05-17T10:35:14.999Z,57.83
2019-05-17T10:36:15.053Z,58.50
2019-05-17T10:37:14.987Z,58.50
2019-05-17T10:38:15.014Z,58.40
2019-05-17T10:39:15.010Z,57.73
2019-05-17T10:40:15.096Z,56.32
2019-05-17T10:41:15.026Z,57.18
2019-05-17T10:42:15.034Z,56.90
2019-05-17T10:43:15.091Z,56.80
2019-05-17T10:44:15.073Z,56.90
2019-05-17T10:45:15.125Z,56.12
2019-05-17T10:46:15.080Z,56.51
2019-05-17T10:47:15.107Z,56.73
2019-05-17T10:48:15.112Z,56.82
2019-05-17T10:49:15.131Z,57.12
2019-05-17T10:50:15.463Z,56.54
2019-05-17T10:51:15.151Z,56.05
2019-05-17T10:52:15.280Z,55.96
2019-05-17T10:53:15.186Z,55.87
2019-05-17T10:54:15.175Z,55.57
2019-05-17T10:55:15.187Z,55.87
2019-05-17T10:56:15.356Z,55.48
2019-05-17T10:57:15.204Z,54.22
2019-05-17T10:58:15.238Z,55.57
2019-05-17T10:59:15.409Z,55.87
2019-05-17T11:00:15.256Z,55.09
2019-05-17T11:01:15.348Z,60.20
2019-05-17T11:02:15.273Z,59.91
2019-05-17T11:03:15.287Z,57.05
2019-05-17T11:04:15.284Z,57.12
2019-05-17T11:05:15.336Z,57.05
2019-05-17T11:06:15.294Z,56.18
2019-05-17T11:07:15.356Z,56.47
2019-05-17T11:08:15.419Z,56.47
2019-05-17T11:09:15.319Z,55.02
2019-05-17T11:10:15.352Z,55.41
2019-05-17T11:11:15.496Z,55.51
2019-05-17T11:12:15.472Z,55.70
2019-05-17T11:13:15.420Z,56.30
2019-05-17T11:14:15.417Z,56.49
2019-05-17T11:15:15.446Z,56.59
2019-05-17T11:16:15.424Z,55.85
2019-05-17T11:17:15.473Z,55.34
2019-05-17T11:18:15.457Z,55.27
2019-05-17T11:19:15.541Z,55.66
2019-05-17T11:20:15.463Z,54.79
2019-05-17T11:21:15.471Z,51.99
2019-05-17T11:22:15.765Z,52.67
2019-05-17T11:23:15.515Z,51.61
2019-05-17T11:24:15.523Z,52.19
2019-05-17T11:25:15.647Z,52.47
2019-05-17T11:26:15.626Z,52.76
2019-05-17T11:27:15.591Z,52.57
2019-05-17T11:28:15.565Z,50.74
2019-05-17T11:29:15.605Z,51.99
2019-05-17T11:30:15.618Z,51.63
2019-05-17T11:31:15.600Z,52.11
2019-05-17T11:32:15.635Z,52.31
2019-05-17T11:33:15.640Z,52.69
2019-05-17T11:34:15.668Z,52.59
2019-05-17T11:35:15.644Z,52.50
2019-05-17T11:36:15.660Z,51.15
2019-05-17T11:37:15.691Z,50.09
2019-05-17T11:38:15.694Z,49.32
2019-05-17T11:39:15.747Z,49.41
2019-05-17T11:40:15.758Z,48.95
2019-05-17T11:41:21.122Z,49.34
2019-05-17T11:42:15.710Z,49.05
2019-05-17T11:43:15.731Z,48.66
2019-05-17T11:44:15.814Z,48.57
2019-05-17T11:45:27.185Z,48.88
2019-05-17T11:46:15.803Z,48.18
2019-05-17T11:47:15.803Z,47.70
2019-05-17T11:48:15.837Z,47.31
2019-05-17T11:49:15.856Z,47.53
2019-05-17T11:50:16.130Z,47.41
2019-05-17T11:51:15.863Z,47.70
2019-05-17T11:52:15.844Z,46.33
2019-05-17T11:53:15.852Z,47.89
2019-05-17T11:54:15.871Z,48.28
2019-05-17T11:55:15.920Z,47.02
2019-05-17T11:56:15.908Z,47.41
2019-05-17T11:57:15.901Z,47.89
2019-05-17T11:58:15.935Z,47.80
2019-05-17T11:59:15.922Z,48.86
2019-05-17T12:00:16.149Z,47.80
2019-05-17T12:01:16.004Z,47.60
2019-05-17T12:02:15.979Z,47.80
2019-05-17T12:03:16.280Z,48.76
2019-05-17T12:04:15.995Z,48.88
2019-05-17T12:05:15.992Z,48.47
2019-05-17T12:06:16.067Z,48.21
2019-05-17T12:07:16.024Z,47.43
2019-05-17T12:08:16.038Z,46.66
2019-05-17T12:09:16.077Z,46.37
2019-05-17T12:10:16.192Z,46.56
2019-05-17T12:11:16.126Z,46.66
2019-05-17T12:12:16.108Z,45.76
2019-05-17T12:13:16.134Z,45.86
2019-05-17T12:14:16.106Z,45.86
2019-05-17T12:15:16.169Z,46.03
2019-05-17T12:16:16.191Z,46.51
2019-05-17T12:17:16.135Z,47.94
2019-05-17T12:18:16.154Z,48.61
2019-05-17T12:19:16.169Z,48.71
2019-05-17T12:20:16.176Z,49.10
2019-05-17T12:21:16.287Z,48.90
2019-05-17T12:22:16.229Z,48.33
2019-05-17T12:23:16.227Z,47.85
2019-05-17T12:24:16.232Z,48.42
2019-05-17T12:25:16.278Z,49.19
2019-05-17T12:26:16.254Z,49.29
2019-05-17T12:27:16.360Z,49.58
2019-05-17T12:28:16.276Z,49.41
2019-05-17T12:29:16.290Z,49.70
2019-05-17T12:30:16.293Z,49.41
2019-05-17T12:31:16.333Z,49.00
2019-05-17T12:32:17.252Z,48.93
2019-05-17T12:33:16.378Z,49.41
2019-05-17T12:34:16.375Z,50.18
2019-05-17T12:35:16.401Z,50.57
2019-05-17T12:36:16.358Z,50.38
2019-05-17T12:37:16.389Z,49.99
2019-05-17T12:38:16.402Z,49.73
2019-05-17T12:39:16.485Z,49.82
2019-05-17T12:40:16.414Z,49.05
2019-05-17T12:41:16.467Z,47.70
2019-05-17T12:42:16.502Z,47.80
2019-05-17T12:43:16.579Z,47.99
2019-05-17T12:44:16.470Z,46.54
2019-05-17T12:45:16.477Z,46.03
2019-05-17T12:46:16.491Z,47.02
2019-05-17T12:47:16.500Z,47.22
2019-05-17T12:48:16.503Z,46.92
2019-05-17T12:49:16.595Z,46.13
2019-05-17T12:50:16.553Z,46.54
2019-05-17T12:51:16.563Z,46.54
2019-05-17T12:52:16.578Z,46.15